createdAt,value
2022-11-19T00:01:19.502Z,8.45
2022-11-19T00:03:52.122Z,8.90
2022-11-19T00:08:47.860Z,9.30
2022-11-19T00:11:37.397Z,8.77
2022-11-19T00:14:04.976Z,8.68
2022-11-19T00:16:31.822Z,8.02
2022-11-19T00:18:58.795Z,7.68
2022-11-19T00:21:25.637Z,8.05
2022-11-19T00:23:56.150Z,7.70
2022-11-19T00:26:23.695Z,7.38
2022-11-19T00:28:50.869Z,7.50
2022-11-19T00:31:18.667Z,7.05
2022-11-19T00:33:46.695Z,6.60
2022-11-19T00:36:15.258Z,6.68
2022-11-19T00:38:42.701Z,6.18
2022-11-19T00:41:10.042Z,5.85
2022-11-19T00:43:49.751Z,5.00
2022-11-19T00:46:25.575Z,6.15
2022-11-19T00:48:55.137Z,5.00
2022-11-19T00:51:24.348Z,4.90
2022-11-19T00:53:51.507Z,5.28
2022-11-19T00:56:21.084Z,4.60
2022-11-19T00:58:48.469Z,4.80
2022-11-19T01:01:17.360Z,4.55
2022-11-19T01:03:47.309Z,4.68
2022-11-19T01:06:19.055Z,4.68
2022-11-19T01:08:47.715Z,4.22
2022-11-19T01:11:26.692Z,4.35
2022-11-19T01:13:53.934Z,4.70
2022-11-19T01:16:26.261Z,4.35
2022-11-19T01:18:53.429Z,4.30
2022-11-19T01:21:24.207Z,4.50
2022-11-19T01:23:51.583Z,4.88
2022-11-19T01:26:18.688Z,4.28
2022-11-19T01:28:46.150Z,4.75
2022-11-19T01:31:22.299Z,4.75
2022-11-19T01:33:49.208Z,4.95
2022-11-19T01:36:27.532Z,4.45
2022-11-19T01:38:54.782Z,5.03
2022-11-19T01:41:24.349Z,4.68
2022-11-19T01:43:58.631Z,4.38
2022-11-19T01:46:29.350Z,5.10
2022-11-19T01:49:20.264Z,3.85
2022-11-19T01:51:58.411Z,4.50
2022-11-19T01:54:30.177Z,5.00
2022-11-19T01:57:01.769Z,4.70
2022-11-19T01:59:30.593Z,4.90
2022-11-19T02:01:57.585Z,4.60
2022-11-19T02:04:25.768Z,4.63
2022-11-19T02:06:54.004Z,4.38
2022-11-19T02:09:21.751Z,5.25
2022-11-19T02:11:48.729Z,4.82
2022-11-19T02:14:40.074Z,4.32
2022-11-19T02:17:16.425Z,4.88
2022-11-19T02:19:43.169Z,4.80
2022-11-19T02:22:15.912Z,4.30
2022-11-19T02:24:54.237Z,5.68
2022-11-19T02:27:21.094Z,5.18
2022-11-19T02:30:08.185Z,5.63
2022-11-19T02:32:44.602Z,5.10
2022-11-19T02:35:35.327Z,4.93
2022-11-19T02:38:10.855Z,5.03
2022-11-19T02:40:53.556Z,4.53
2022-11-19T02:43:31.841Z,4.87
2022-11-19T02:46:06.754Z,5.30
2022-11-19T02:48:39.100Z,5.40
2022-11-19T02:51:07.563Z,5.53
2022-11-19T02:53:34.480Z,5.43
2022-11-19T02:56:32.091Z,5.63
2022-11-19T02:59:18.253Z,5.30
2022-11-19T03:02:05.799Z,5.22
2022-11-19T03:04:33.273Z,5.28
2022-11-19T03:07:10.658Z,5.25
2022-11-19T03:09:42.159Z,5.13
2022-11-19T03:12:36.260Z,5.40
2022-11-19T03:15:30.795Z,5.35
2022-11-19T03:18:14.480Z,4.78
2022-11-19T03:20:47.041Z,5.65
2022-11-19T03:23:16.823Z,4.30
2022-11-19T03:25:56.777Z,5.15
2022-11-19T03:28:29.063Z,4.35
2022-11-19T03:30:59.072Z,4.18
2022-11-19T03:33:47.523Z,4.25
2022-11-19T03:36:20.114Z,4.28
2022-11-19T03:38:52.418Z,4.65
2022-11-19T03:41:20.917Z,5.10
2022-11-19T03:43:53.506Z,4.75
2022-11-19T03:46:21.991Z,4.85
2022-11-19T03:48:52.408Z,4.57
2022-11-19T03:51:35.578Z,4.85
2022-11-19T03:54:02.853Z,4.60
2022-11-19T03:56:32.591Z,4.38
2022-11-19T03:59:00.141Z,4.43
2022-11-19T04:01:27.150Z,4.63
2022-11-19T04:04:12.603Z,3.95
2022-11-19T04:06:39.452Z,4.88
2022-11-19T04:09:06.229Z,4.28
2022-11-19T04:11:33.196Z,4.90
2022-11-19T04:14:00.035Z,4.10
2022-11-19T04:16:27.528Z,4.53
2022-11-19T04:18:54.300Z,4.40
2022-11-19T04:21:21.223Z,4.53
2022-11-19T04:23:47.973Z,5.32
2022-11-19T04:26:14.783Z,5.15
2022-11-19T04:28:41.563Z,4.82
2022-11-19T04:31:09.111Z,5.50
2022-11-19T04:33:38.180Z,4.60
2022-11-19T04:36:05.206Z,5.00
2022-11-19T04:38:32.075Z,5.50
2022-11-19T04:40:58.883Z,5.00
2022-11-19T04:43:25.650Z,4.72
2022-11-19T04:45:52.652Z,5.18
2022-11-19T04:48:19.443Z,5.43
2022-11-19T04:50:46.253Z,5.32
2022-11-19T04:53:13.102Z,4.95
2022-11-19T04:55:39.927Z,5.40
2022-11-19T04:58:06.718Z,4.55
2022-11-19T05:00:33.517Z,5.68
2022-11-19T05:03:00.286Z,4.88
2022-11-19T05:05:27.062Z,6.10
2022-11-19T05:07:53.894Z,5.75
2022-11-19T05:10:20.735Z,5.47
2022-11-19T05:12:47.580Z,5.82
2022-11-19T05:15:14.526Z,5.50
2022-11-19T05:17:41.342Z,5.32
2022-11-19T05:20:09.243Z,5.93
2022-11-19T05:22:36.039Z,5.65
2022-11-19T05:25:02.944Z,5.65
2022-11-19T05:27:29.816Z,5.97
2022-11-19T05:29:56.644Z,6.07
2022-11-19T05:32:23.391Z,6.80
2022-11-19T05:34:50.229Z,5.97
2022-11-19T05:37:17.157Z,6.10
2022-11-19T05:39:43.948Z,6.70
2022-11-19T05:42:10.698Z,6.13
2022-11-19T05:44:37.477Z,7.25
2022-11-19T05:47:04.258Z,7.72
2022-11-19T05:49:30.997Z,7.00
2022-11-19T05:51:57.825Z,7.03
2022-11-19T05:54:24.671Z,7.32
2022-11-19T05:56:51.582Z,7.32
2022-11-19T05:59:18.619Z,7.95
2022-11-19T06:01:45.585Z,8.15
2022-11-19T06:04:12.643Z,8.13
2022-11-19T06:06:39.467Z,8.45
2022-11-19T06:09:06.333Z,8.18
2022-11-19T06:11:48.102Z,8.30
2022-11-19T06:14:25.384Z,8.90
2022-11-19T06:16:57.043Z,8.77
2022-11-19T06:19:24.695Z,9.15
2022-11-19T06:21:52.456Z,8.88
2022-11-19T06:24:19.827Z,8.40
2022-11-19T06:26:46.976Z,9.25
2022-11-19T06:29:14.954Z,9.68
2022-11-19T06:31:41.830Z,9.20
2022-11-19T06:34:09.172Z,9.32
2022-11-19T06:36:40.413Z,10.07
2022-11-19T06:39:08.995Z,9.35
2022-11-19T06:41:35.933Z,9.50
2022-11-19T06:44:03.115Z,10.10
2022-11-19T06:46:30.422Z,9.57
2022-11-19T06:48:57.319Z,9.02
2022-11-19T06:51:24.775Z,8.35
2022-11-19T06:53:51.655Z,8.25
2022-11-19T06:56:18.511Z,9.43
2022-11-19T06:58:45.570Z,8.68
2022-11-19T07:01:14.363Z,9.07
2022-11-19T07:03:41.695Z,9.20
2022-11-19T07:06:08.998Z,10.48
2022-11-19T07:08:37.318Z,9.35
2022-11-19T07:11:25.135Z,9.43
2022-11-19T07:13:58.428Z,8.65
2022-11-19T07:18:53.332Z,11.07
2022-11-19T07:21:20.157Z,9.43
2022-11-19T07:23:47.003Z,8.82
2022-11-19T07:26:14.174Z,9.18
2022-11-19T07:28:41.178Z,8.55
2022-11-19T07:31:08.555Z,9.00
2022-11-19T07:33:36.332Z,10.52
2022-11-19T07:36:03.468Z,8.80
2022-11-19T07:38:35.619Z,9.15
2022-11-19T07:41:24.686Z,9.00
2022-11-19T07:43:52.067Z,9.07
2022-11-19T07:46:19.027Z,8.95
2022-11-19T07:48:45.837Z,8.02
2022-11-19T07:51:12.771Z,8.65
2022-11-19T07:53:39.619Z,8.43
2022-11-19T07:56:06.543Z,9.07
2022-11-19T07:58:33.363Z,8.45
2022-11-19T08:01:08.703Z,7.53
2022-11-19T08:03:35.553Z,8.55
2022-11-19T08:06:06.449Z,7.93
2022-11-19T08:08:33.658Z,7.40
2022-11-19T08:11:08.426Z,8.13
2022-11-19T08:13:36.041Z,9.18
2022-11-19T08:16:05.086Z,8.32
2022-11-19T08:18:32.437Z,7.85
2022-11-19T08:21:11.023Z,7.55
2022-11-19T08:23:39.148Z,7.80
2022-11-19T08:26:09.137Z,7.55
2022-11-19T08:28:35.890Z,7.80
2022-11-19T08:31:09.991Z,8.48
2022-11-19T08:33:36.809Z,8.43
2022-11-19T08:36:04.286Z,7.30
2022-11-19T08:38:35.832Z,8.00
2022-11-19T08:41:23.179Z,8.15
2022-11-19T08:43:50.210Z,9.15
2022-11-19T08:46:17.130Z,9.80
2022-11-19T08:48:44.617Z,10.88
2022-11-19T08:51:13.515Z,8.18
2022-11-19T08:53:40.781Z,7.32
2022-11-19T08:56:07.952Z,8.43
2022-11-19T08:58:35.919Z,8.20
2022-11-19T09:01:10.799Z,8.82
2022-11-19T09:03:38.255Z,8.15
2022-11-19T09:06:06.071Z,8.02
2022-11-19T09:08:33.889Z,8.18
2022-11-19T09:11:05.336Z,9.13
2022-11-19T09:13:32.114Z,9.05
2022-11-19T09:15:59.438Z,8.48
2022-11-19T09:18:26.242Z,8.25
2022-11-19T09:20:57.127Z,7.95
2022-11-19T09:23:25.367Z,7.47
2022-11-19T09:25:58.031Z,8.50
2022-11-19T09:28:25.745Z,7.97
2022-11-19T09:31:20.209Z,8.27
2022-11-19T09:33:49.850Z,7.60
2022-11-19T09:36:19.443Z,9.07
2022-11-19T09:38:47.148Z,8.13
2022-11-19T09:41:20.648Z,8.75
2022-11-19T09:43:53.216Z,6.93
2022-11-19T09:46:35.090Z,9.10
2022-11-19T09:49:07.813Z,8.82
2022-11-19T09:51:36.207Z,8.60
2022-11-19T09:54:12.378Z,8.25
2022-11-19T09:56:43.688Z,8.43
2022-11-19T09:59:33.295Z,7.65
2022-11-19T10:02:00.143Z,7.72
2022-11-19T10:04:30.099Z,8.35
2022-11-19T10:07:18.381Z,8.95
2022-11-19T10:10:11.883Z,8.40
2022-11-19T10:13:13.376Z,8.73
2022-11-19T10:16:03.664Z,7.97
2022-11-19T10:18:54.900Z,8.73
2022-11-19T10:22:05.610Z,8.48
2022-11-19T10:24:42.049Z,8.20
2022-11-19T10:27:38.300Z,7.78
2022-11-19T10:30:12.867Z,6.95
2022-11-19T10:32:44.175Z,8.63
2022-11-19T10:35:22.759Z,7.30
2022-11-19T10:38:00.008Z,7.57
2022-11-19T10:40:36.837Z,6.90
2022-11-19T10:43:23.620Z,7.03
2022-11-19T10:45:50.882Z,6.97
2022-11-19T10:48:28.810Z,6.70
2022-11-19T10:50:59.194Z,7.63
2022-11-19T10:53:33.774Z,7.65
2022-11-19T10:56:19.866Z,6.93
2022-11-19T10:58:57.460Z,6.50
2022-11-19T11:01:35.063Z,6.25
2022-11-19T11:04:13.654Z,6.20
2022-11-19T11:06:56.435Z,5.90
2022-11-19T11:09:34.474Z,5.72
2022-11-19T11:13:04.666Z,6.30
2022-11-19T11:15:32.090Z,6.03
2022-11-19T11:18:07.575Z,6.43
2022-11-19T11:20:36.354Z,6.45
2022-11-19T11:23:22.881Z,6.15
2022-11-19T11:25:54.789Z,6.03
2022-11-19T11:28:23.719Z,6.45
2022-11-19T11:30:54.605Z,6.07
2022-11-19T11:33:24.451Z,6.07
2022-11-19T11:35:54.007Z,6.05
2022-11-19T11:38:23.708Z,6.18
2022-11-19T11:44:03.539Z,6.13
2022-11-19T11:46:49.147Z,4.70
2022-11-19T11:49:27.484Z,5.15
2022-11-19T11:52:09.576Z,5.57
2022-11-19T11:54:38.402Z,5.13
2022-11-19T11:57:14.892Z,4.35
2022-11-19T11:59:41.768Z,4.82
2022-11-19T12:02:22.733Z,4.72
2022-11-19T12:04:51.568Z,5.25
2022-11-19T12:07:30.541Z,5.10
2022-11-19T12:10:21.711Z,4.82
2022-11-19T12:13:06.997Z,4.90
2022-11-19T12:16:08.782Z,5.10
2022-11-19T12:18:38.345Z,5.00
2022-11-19T12:21:28.383Z,5.20
2022-11-19T12:24:16.727Z,5.28
2022-11-19T12:27:03.619Z,5.57
2022-11-19T12:29:42.070Z,4.55
2022-11-19T12:32:52.680Z,5.05
2022-11-19T12:35:58.999Z,5.45
2022-11-19T12:38:40.446Z,5.10
2022-11-19T12:41:25.716Z,5.25
2022-11-19T12:44:01.293Z,4.75
2022-11-19T12:47:07.395Z,5.95
2022-11-19T12:50:02.038Z,4.95
2022-11-19T12:52:53.825Z,5.10
2022-11-19T12:55:31.270Z,5.07
2022-11-19T12:58:25.726Z,5.68
2022-11-19T13:01:00.664Z,4.75
2022-11-19T13:04:02.639Z,6.55
2022-11-19T13:06:37.993Z,7.15
2022-11-19T13:09:12.478Z,5.53
2022-11-19T13:11:53.417Z,6.15
2022-11-19T13:14:39.839Z,5.35
2022-11-19T13:17:18.990Z,5.45
2022-11-19T13:19:51.342Z,5.28
2022-11-19T13:22:23.607Z,4.55
2022-11-19T13:24:56.106Z,4.63
2022-11-19T13:27:25.844Z,4.70
2022-11-19T13:29:56.481Z,4.30
2022-11-19T13:32:39.048Z,10.82
2022-11-19T13:35:22.082Z,5.20
2022-11-19T13:38:24.598Z,5.53
2022-11-19T13:41:10.774Z,5.22
2022-11-19T13:43:56.555Z,4.38
2022-11-19T13:46:28.925Z,4.60
2022-11-19T13:49:02.343Z,4.63
2022-11-19T13:51:42.655Z,4.68
2022-11-19T13:54:18.706Z,4.88
2022-11-19T13:56:49.087Z,4.93
2022-11-19T13:59:37.589Z,6.80
2022-11-19T14:02:39.690Z,4.85
2022-11-19T14:05:18.003Z,5.03
2022-11-19T14:08:17.352Z,4.68
2022-11-19T14:11:00.564Z,4.70
2022-11-19T14:14:08.102Z,4.75
2022-11-19T14:17:11.196Z,4.57
2022-11-19T14:20:15.164Z,5.22
2022-11-19T14:23:15.014Z,4.97
2022-11-19T14:26:05.914Z,4.68
2022-11-19T14:28:50.570Z,4.80
2022-11-19T14:31:20.405Z,5.30
2022-11-19T14:33:47.818Z,6.60
2022-11-19T14:36:43.447Z,5.00
2022-11-19T14:39:41.012Z,6.60
2022-11-19T14:42:22.422Z,6.93
2022-11-19T14:45:01.282Z,10.90
2022-11-19T14:47:39.870Z,11.05
2022-11-19T14:50:30.782Z,10.30
2022-11-19T14:53:02.087Z,17.67
2022-11-19T14:55:30.749Z,15.00
2022-11-19T14:58:07.709Z,11.20
2022-11-19T15:00:38.022Z,10.20
2022-11-19T15:03:11.993Z,11.23
2022-11-19T15:05:46.028Z,11.50
2022-11-19T15:08:18.856Z,12.30
2022-11-19T15:10:47.850Z,10.73
2022-11-19T15:13:26.243Z,12.25
2022-11-19T15:15:56.764Z,10.57
2022-11-19T15:18:31.182Z,8.30
2022-11-19T15:21:10.983Z,6.28
2022-11-19T15:23:56.406Z,7.00
2022-11-19T15:26:39.739Z,6.50
2022-11-19T15:29:12.534Z,6.00
2022-11-19T15:32:12.699Z,9.55
2022-11-19T15:35:30.309Z,9.35
2022-11-19T15:38:19.949Z,10.18
2022-11-19T15:40:49.832Z,11.40
2022-11-19T15:43:30.885Z,11.20
2022-11-19T15:46:05.810Z,11.38
2022-11-19T15:49:10.766Z,8.77
2022-11-19T15:52:04.832Z,7.03
2022-11-19T15:54:33.864Z,6.97
2022-11-19T15:57:15.706Z,7.28
2022-11-19T15:59:44.710Z,6.88
2022-11-19T16:02:21.332Z,7.30
2022-11-19T16:04:51.080Z,7.22
2022-11-19T16:07:24.847Z,7.70
2022-11-19T16:09:51.844Z,7.32
2022-11-19T16:12:42.627Z,7.30
2022-11-19T16:15:42.703Z,6.97
2022-11-19T16:18:18.247Z,7.15
2022-11-19T16:20:50.287Z,7.10
2022-11-19T16:23:20.860Z,6.65
2022-11-19T16:25:48.674Z,6.72
2022-11-19T16:28:18.226Z,7.05
2022-11-19T16:30:49.792Z,10.27
2022-11-19T16:33:22.739Z,9.25
2022-11-19T16:35:53.201Z,11.60
2022-11-19T16:38:27.461Z,11.30
2022-11-19T16:41:16.484Z,9.35
2022-11-19T16:43:48.823Z,9.25
2022-11-19T16:46:20.163Z,8.30
2022-11-19T16:48:58.071Z,9.90
2022-11-19T16:51:31.106Z,8.90
2022-11-19T16:53:58.256Z,9.88
2022-11-19T16:56:25.653Z,9.32
2022-11-19T16:58:56.851Z,9.55
2022-11-19T17:01:28.136Z,8.57
2022-11-19T17:04:02.357Z,9.40
2022-11-19T17:06:32.937Z,9.23
2022-11-19T17:09:01.001Z,8.75
2022-11-19T17:12:04.548Z,9.48
2022-11-19T17:14:34.367Z,9.32
2022-11-19T17:17:02.868Z,9.43
2022-11-19T17:19:34.925Z,9.50
2022-11-19T17:22:13.896Z,9.23
2022-11-19T17:24:43.214Z,9.85
2022-11-19T17:27:27.231Z,9.55
2022-11-19T17:30:09.368Z,9.32
2022-11-19T17:32:42.364Z,9.52
2022-11-19T17:35:29.921Z,9.55
2022-11-19T17:37:59.580Z,9.70
2022-11-19T17:40:26.472Z,9.32
2022-11-19T17:43:11.904Z,9.80
2022-11-19T17:45:38.685Z,10.60
2022-11-19T17:48:20.175Z,10.48
2022-11-19T17:50:47.014Z,10.00
2022-11-19T17:53:13.911Z,9.35
2022-11-19T17:55:42.506Z,10.45
2022-11-19T17:58:09.642Z,11.35
2022-11-19T18:00:36.535Z,12.15
2022-11-19T18:03:03.635Z,11.52
2022-11-19T18:05:34.668Z,12.25
2022-11-19T18:08:01.516Z,11.77
2022-11-19T18:10:28.398Z,13.50
2022-11-19T18:12:55.235Z,12.85
2022-11-19T18:15:22.072Z,12.98
2022-11-19T18:17:49.023Z,13.30
2022-11-19T18:20:16.007Z,13.60
2022-11-19T18:22:43.044Z,14.23
2022-11-19T18:25:15.567Z,15.27
2022-11-19T18:27:42.406Z,16.70
2022-11-19T18:30:09.940Z,17.85
2022-11-19T18:32:37.116Z,17.80
2022-11-19T18:35:04.846Z,18.42
2022-11-19T18:37:32.030Z,17.60
2022-11-19T18:39:58.828Z,18.98
2022-11-19T18:42:26.538Z,17.52
2022-11-19T18:44:53.927Z,15.27
2022-11-19T18:47:23.274Z,15.73
2022-11-19T18:49:50.150Z,14.02
2022-11-19T18:52:16.947Z,28.50
2022-11-19T18:54:44.564Z,31.95
2022-11-19T18:57:12.639Z,27.80
2022-11-19T18:59:39.893Z,23.83
2022-11-19T19:02:06.942Z,27.23
2022-11-19T19:04:33.874Z,21.42
2022-11-19T19:07:01.041Z,15.95
2022-11-19T19:09:28.315Z,15.77
2022-11-19T19:12:14.374Z,15.32
2022-11-19T19:14:42.341Z,17.83
2022-11-19T19:17:09.371Z,19.65
2022-11-19T19:19:36.167Z,20.17
2022-11-19T19:22:03.214Z,19.10
2022-11-19T19:24:31.509Z,17.10
2022-11-19T19:26:59.608Z,17.48
2022-11-19T19:29:27.272Z,18.33
2022-11-19T19:31:54.886Z,18.13
2022-11-19T19:34:21.655Z,17.77
2022-11-19T19:36:52.912Z,25.63
2022-11-19T19:39:20.597Z,18.85
2022-11-19T19:41:49.188Z,16.40
2022-11-19T19:44:16.101Z,16.88
2022-11-19T19:46:43.063Z,16.35
2022-11-19T19:49:09.823Z,16.85
2022-11-19T19:51:37.174Z,16.05
2022-11-19T19:54:04.127Z,16.00
2022-11-19T19:56:32.739Z,15.80
2022-11-19T19:59:00.821Z,15.48
2022-11-19T20:01:33.565Z,16.13
2022-11-19T20:04:05.870Z,11.55
2022-11-19T20:06:33.999Z,15.43
2022-11-19T20:09:06.914Z,15.48
2022-11-19T20:11:35.340Z,17.13
2022-11-19T20:14:02.246Z,16.08
2022-11-19T20:16:31.006Z,15.82
2022-11-19T20:18:59.963Z,17.52
2022-11-19T20:21:30.606Z,15.32
2022-11-19T20:23:57.520Z,16.23
2022-11-19T20:26:27.805Z,15.70
2022-11-19T20:28:56.672Z,15.80
2022-11-19T20:31:25.396Z,15.93
2022-11-19T20:33:55.239Z,16.85
2022-11-19T20:36:24.400Z,15.00
2022-11-19T20:38:52.460Z,15.52
2022-11-19T20:41:39.718Z,15.40
2022-11-19T20:44:20.495Z,14.55
2022-11-19T20:46:59.009Z,15.30
2022-11-19T20:49:29.248Z,14.10
2022-11-19T20:51:56.871Z,14.40
2022-11-19T20:54:24.831Z,14.35
2022-11-19T20:56:53.131Z,14.77
2022-11-19T20:59:21.019Z,15.05
2022-11-19T21:01:52.499Z,19.90
2022-11-19T21:04:20.333Z,20.30
2022-11-19T21:06:47.723Z,21.67
2022-11-19T21:09:15.869Z,18.92
2022-11-19T21:11:43.621Z,19.55
2022-11-19T21:14:10.843Z,20.65
2022-11-19T21:16:37.754Z,18.45
2022-11-19T21:19:04.875Z,17.10
2022-11-19T21:21:31.697Z,18.13
2022-11-19T21:23:58.590Z,17.38
2022-11-19T21:26:27.529Z,17.05
2022-11-19T21:28:57.253Z,17.70
2022-11-19T21:31:38.671Z,21.30
2022-11-19T21:34:10.956Z,24.48
2022-11-19T21:36:38.459Z,24.95
2022-11-19T21:39:06.483Z,23.20
2022-11-19T21:41:34.033Z,24.73
2022-11-19T21:44:02.175Z,22.67
2022-11-19T21:46:28.994Z,21.35
2022-11-19T21:48:55.957Z,18.73
2022-11-19T21:51:24.973Z,17.42
2022-11-19T21:53:56.827Z,15.88
2022-11-19T21:56:25.775Z,14.07
2022-11-19T21:58:52.623Z,15.00
2022-11-19T22:01:19.735Z,15.27
2022-11-19T22:03:46.707Z,13.77
2022-11-19T22:06:13.557Z,15.18
2022-11-19T22:08:41.572Z,16.65
2022-11-19T22:11:28.879Z,15.48
2022-11-19T22:14:04.267Z,15.70
2022-11-19T22:16:33.161Z,16.60
2022-11-19T22:19:00.187Z,16.23
2022-11-19T22:21:28.992Z,16.15
2022-11-19T22:23:56.106Z,16.08
2022-11-19T22:26:22.968Z,16.23
2022-11-19T22:28:49.867Z,14.40
2022-11-19T22:31:16.821Z,14.93
2022-11-19T22:33:43.644Z,13.75
2022-11-19T22:36:11.390Z,14.05
2022-11-19T22:38:39.097Z,13.73
2022-11-19T22:41:12.237Z,13.75
2022-11-19T22:43:40.047Z,14.30
2022-11-19T22:46:08.807Z,15.13
2022-11-19T22:48:36.237Z,15.05
2022-11-19T22:51:15.568Z,13.98
2022-11-19T22:53:43.028Z,14.55
2022-11-19T22:56:11.848Z,13.18
2022-11-19T22:58:39.525Z,14.23
2022-11-19T23:01:08.024Z,13.50
2022-11-19T23:03:34.966Z,13.77
2022-11-19T23:06:01.823Z,15.05
2022-11-19T23:08:28.727Z,14.52
2022-11-19T23:11:04.318Z,13.70
2022-11-19T23:13:33.615Z,13.57
2022-11-19T23:16:06.325Z,12.75
2022-11-19T23:18:39.334Z,13.63
2022-11-19T23:21:09.759Z,14.10
2022-11-19T23:23:37.065Z,14.50
2022-11-19T23:26:05.636Z,13.80
2022-11-19T23:28:34.845Z,13.20
2022-11-19T23:31:07.103Z,13.45
2022-11-19T23:33:33.962Z,13.57
2022-11-19T23:36:06.973Z,14.15
2022-11-19T23:38:36.263Z,14.57
2022-11-19T23:41:05.335Z,15.07
2022-11-19T23:43:33.074Z,13.77
2022-11-19T23:46:17.369Z,14.52
2022-11-19T23:48:46.219Z,15.20
2022-11-19T23:51:15.740Z,13.95
2022-11-19T23:53:42.927Z,13.60
2022-11-19T23:56:11.334Z,13.95
2022-11-19T23:58:38.833Z,14.40
